sensor_id;sensor_type;location;lat;lon;timestamp;P1;durP1;ratioP1;P2;durP2;ratioP2
6089;SDS011;3073;42.660;23.316;2023-10-13T00:01:45;21.67;;;9.53;;
6089;SDS011;3073;42.660;23.316;2023-10-13T00:04:13;19.90;;;10.30;;
6089;SDS011;3073;42.660;23.316;2023-10-13T00:06:40;20.83;;;9.13;;
6089;SDS011;3073;42.660;23.316;2023-10-13T00:09:12;33.27;;;10.53;;
6089;SDS011;3073;42.660;23.316;2023-10-13T00:11:43;19.27;;;8.67;;
6089;SDS011;3073;42.660;23.316;2023-10-13T00:14:11;17.20;;;8.43;;
6089;SDS011;3073;42.660;23.316;2023-10-13T00:16:42;24.53;;;10.20;;
6089;SDS011;3073;42.660;23.316;2023-10-13T00:19:26;17.17;;;9.57;;
6089;SDS011;3073;42.660;23.316;2023-10-13T00:21:54;15.67;;;9.47;;
6089;SDS011;3073;42.660;23.316;2023-10-13T00:24:23;17.83;;;9.47;;
6089;SDS011;3073;42.660;23.316;2023-10-13T00:26:54;22.63;;;9.57;;
6089;SDS011;3073;42.660;23.316;2023-10-13T00:29:22;16.53;;;9.10;;
6089;SDS011;3073;42.660;23.316;2023-10-13T00:31:55;24.37;;;11.17;;
6089;SDS011;3073;42.660;23.316;2023-10-13T00:34:22;17.60;;;8.73;;
6089;SDS011;3073;42.660;23.316;2023-10-13T00:36:52;12.47;;;8.53;;
6089;SDS011;3073;42.660;23.316;2023-10-13T00:39:34;13.03;;;8.17;;
6089;SDS011;3073;42.660;23.316;2023-10-13T00:42:02;17.37;;;8.10;;
6089;SDS011;3073;42.660;23.316;2023-10-13T00:44:32;14.93;;;9.37;;
6089;SDS011;3073;42.660;23.316;2023-10-13T00:47:07;15.40;;;7.77;;
6089;SDS011;3073;42.660;23.316;2023-10-13T00:49:43;15.90;;;9.00;;
6089;SDS011;3073;42.660;23.316;2023-10-13T00:52:13;17.13;;;9.40;;
6089;SDS011;3073;42.660;23.316;2023-10-13T00:54:42;13.97;;;8.03;;
6089;SDS011;3073;42.660;23.316;2023-10-13T00:57:11;10.57;;;7.80;;
6089;SDS011;3073;42.660;23.316;2023-10-13T00:59:51;16.70;;;8.30;;
6089;SDS011;3073;42.660;23.316;2023-10-13T01:02:19;14.77;;;8.20;;
6089;SDS011;3073;42.660;23.316;2023-10-13T01:05:03;16.67;;;9.10;;
6089;SDS011;3073;42.660;23.316;2023-10-13T01:07:32;21.10;;;8.37;;
6089;SDS011;3073;42.660;23.316;2023-10-13T01:10:04;15.93;;;7.97;;
6089;SDS011;3073;42.660;23.316;2023-10-13T01:12:38;15.90;;;8.77;;
6089;SDS011;3073;42.660;23.316;2023-10-13T01:15:04;18.20;;;8.30;;
6089;SDS011;3073;42.660;23.316;2023-10-13T01:17:36;15.37;;;7.93;;
6089;SDS011;3073;42.660;23.316;2023-10-13T01:20:02;13.50;;;8.80;;
6089;SDS011;3073;42.660;23.316;2023-10-13T01:22:31;13.83;;;8.03;;
6089;SDS011;3073;42.660;23.316;2023-10-13T01:24:59;15.50;;;9.10;;
6089;SDS011;3073;42.660;23.316;2023-10-13T01:27:38;21.67;;;8.70;;
6089;SDS011;3073;42.660;23.316;2023-10-13T01:30:04;17.73;;;8.60;;
6089;SDS011;3073;42.660;23.316;2023-10-13T01:32:35;14.93;;;8.63;;
6089;SDS011;3073;42.660;23.316;2023-10-13T01:35:06;14.53;;;8.30;;
6089;SDS011;3073;42.660;23.316;2023-10-13T01:37:33;11.40;;;7.90;;
6089;SDS011;3073;42.660;23.316;2023-10-13T01:40:00;16.23;;;7.77;;
6089;SDS011;3073;42.660;23.316;2023-10-13T01:42:27;14.60;;;8.30;;
6089;SDS011;3073;42.660;23.316;2023-10-13T01:44:55;12.73;;;7.70;;
6089;SDS011;3073;42.660;23.316;2023-10-13T01:47:24;17.03;;;7.90;;
6089;SDS011;3073;42.660;23.316;2023-10-13T01:49:53;16.80;;;8.63;;
6089;SDS011;3073;42.660;23.316;2023-10-13T01:52:19;11.30;;;7.73;;
6089;SDS011;3073;42.660;23.316;2023-10-13T01:54:46;13.87;;;9.07;;
6089;SDS011;3073;42.660;23.316;2023-10-13T01:57:15;15.00;;;8.90;;
6089;SDS011;3073;42.660;23.316;2023-10-13T01:59:43;12.30;;;8.20;;
6089;SDS011;3073;42.660;23.316;2023-10-13T02:02:09;12.30;;;7.97;;
6089;SDS011;3073;42.660;23.316;2023-10-13T02:04:37;16.63;;;8.00;;
6089;SDS011;3073;42.660;23.316;2023-10-13T02:07:07;15.43;;;9.00;;
6089;SDS011;3073;42.660;23.316;2023-10-13T02:09:39;16.40;;;9.90;;
6089;SDS011;3073;42.660;23.316;2023-10-13T02:12:07;12.27;;;8.50;;
6089;SDS011;3073;42.660;23.316;2023-10-13T02:14:36;14.40;;;8.40;;
6089;SDS011;3073;42.660;23.316;2023-10-13T02:17:03;14.43;;;7.37;;
6089;SDS011;3073;42.660;23.316;2023-10-13T02:19:37;17.23;;;8.40;;
6089;SDS011;3073;42.660;23.316;2023-10-13T02:22:09;17.30;;;8.30;;
6089;SDS011;3073;42.660;23.316;2023-10-13T02:24:36;17.07;;;8.53;;
6089;SDS011;3073;42.660;23.316;2023-10-13T02:27:05;23.60;;;8.70;;
6089;SDS011;3073;42.660;23.316;2023-10-13T02:29:40;14.53;;;7.57;;
6089;SDS011;3073;42.660;23.316;2023-10-13T02:32:10;12.90;;;7.83;;
6089;SDS011;3073;42.660;23.316;2023-10-13T02:34:43;14.90;;;8.83;;
6089;SDS011;3073;42.660;23.316;2023-10-13T02:37:12;12.63;;;8.30;;
6089;SDS011;3073;42.660;23.316;2023-10-13T02:39:38;16.13;;;8.13;;
6089;SDS011;3073;42.660;23.316;2023-10-13T02:42:06;13.40;;;9.20;;
6089;SDS011;3073;42.660;23.316;2023-10-13T02:44:32;16.43;;;7.63;;
6089;SDS011;3073;42.660;23.316;2023-10-13T02:47:03;19.80;;;9.33;;
6089;SDS011;3073;42.660;23.316;2023-10-13T02:49:31;13.47;;;8.43;;
6089;SDS011;3073;42.660;23.316;2023-10-13T02:51:59;14.80;;;9.13;;
6089;SDS011;3073;42.660;23.316;2023-10-13T02:54:30;11.50;;;8.07;;
6089;SDS011;3073;42.660;23.316;2023-10-13T02:56:59;12.93;;;8.27;;
6089;SDS011;3073;42.660;23.316;2023-10-13T02:59:38;11.53;;;7.73;;
6089;SDS011;3073;42.660;23.316;2023-10-13T03:02:13;9.93;;;7.63;;
6089;SDS011;3073;42.660;23.316;2023-10-13T03:04:49;13.23;;;8.60;;
6089;SDS011;3073;42.660;23.316;2023-10-13T03:07:15;26.27;;;9.03;;
6089;SDS011;3073;42.660;23.316;2023-10-13T03:09:48;17.10;;;8.70;;
6089;SDS011;3073;42.660;23.316;2023-10-13T03:12:16;16.53;;;9.10;;
6089;SDS011;3073;42.660;23.316;2023-10-13T03:14:43;16.53;;;8.87;;
6089;SDS011;3073;42.660;23.316;2023-10-13T03:17:14;14.83;;;8.70;;
6089;SDS011;3073;42.660;23.316;2023-10-13T03:19:42;16.60;;;8.67;;
6089;SDS011;3073;42.660;23.316;2023-10-13T03:22:13;15.70;;;9.57;;
6089;SDS011;3073;42.660;23.316;2023-10-13T03:24:41;10.20;;;8.10;;
6089;SDS011;3073;42.660;23.316;2023-10-13T03:27:11;14.93;;;8.33;;
6089;SDS011;3073;42.660;23.316;2023-10-13T03:29:41;17.77;;;9.10;;
6089;SDS011;3073;42.660;23.316;2023-10-13T03:32:08;22.17;;;8.43;;
6089;SDS011;3073;42.660;23.316;2023-10-13T03:34:39;13.23;;;9.07;;
6089;SDS011;3073;42.660;23.316;2023-10-13T03:37:15;21.67;;;9.33;;
6089;SDS011;3073;42.660;23.316;2023-10-13T03:39:43;14.53;;;8.63;;
6089;SDS011;3073;42.660;23.316;2023-10-13T03:42:11;23.70;;;10.60;;
6089;SDS011;3073;42.660;23.316;2023-10-13T03:44:43;19.23;;;9.77;;
6089;SDS011;3073;42.660;23.316;2023-10-13T03:47:11;20.57;;;11.07;;
6089;SDS011;3073;42.660;23.316;2023-10-13T03:49:53;15.40;;;9.50;;
6089;SDS011;3073;42.660;23.316;2023-10-13T03:52:40;25.03;;;10.00;;
6089;SDS011;3073;42.660;23.316;2023-10-13T03:55:07;21.33;;;10.30;;
6089;SDS011;3073;42.660;23.316;2023-10-13T03:57:42;22.93;;;10.00;;
6089;SDS011;3073;42.660;23.316;2023-10-13T04:00:11;19.77;;;10.27;;
6089;SDS011;3073;42.660;23.316;2023-10-13T04:02:47;19.50;;;9.97;;
6089;SDS011;3073;42.660;23.316;2023-10-13T04:05:31;22.90;;;9.90;;
6089;SDS011;3073;42.660;23.316;2023-10-13T04:08:04;16.40;;;10.23;;
6089;SDS011;3073;42.660;23.316;2023-10-13T04:10:49;21.33;;;9.27;;
6089;SDS011;3073;42.660;23.316;2023-10-13T04:13:35;27.30;;;10.17;;
6089;SDS011;3073;42.660;23.316;2023-10-13T04:16:27;21.00;;;11.00;;
6089;SDS011;3073;42.660;23.316;2023-10-13T04:19:16;30.43;;;10.63;;
6089;SDS011;3073;42.660;23.316;2023-10-13T04:21:52;23.77;;;10.13;;
6089;SDS011;3073;42.660;23.316;2023-10-13T04:24:23;13.20;;;10.00;;
6089;SDS011;3073;42.660;23.316;2023-10-13T04:27:04;30.93;;;11.50;;
6089;SDS011;3073;42.660;23.316;2023-10-13T04:29:49;23.03;;;10.20;;
6089;SDS011;3073;42.660;23.316;2023-10-13T04:32:26;23.40;;;10.77;;
6089;SDS011;3073;42.660;23.316;2023-10-13T04:34:58;21.43;;;10.33;;
6089;SDS011;3073;42.660;23.316;2023-10-13T04:37:35;17.80;;;10.57;;
6089;SDS011;3073;42.660;23.316;2023-10-13T04:40:14;23.90;;;10.20;;
6089;SDS011;3073;42.660;23.316;2023-10-13T04:42:44;20.30;;;11.10;;
6089;SDS011;3073;42.660;23.316;2023-10-13T04:45:19;29.67;;;10.37;;
6089;SDS011;3073;42.660;23.316;2023-10-13T04:48:12;20.30;;;11.10;;
6089;SDS011;3073;42.660;23.316;2023-10-13T04:50:58;22.07;;;12.30;;
6089;SDS011;3073;42.660;23.316;2023-10-13T04:53:41;33.87;;;11.33;;
6089;SDS011;3073;42.660;23.316;2023-10-13T04:56:22;19.60;;;10.57;;
6089;SDS011;3073;42.660;23.316;2023-10-13T04:59:08;16.30;;;11.37;;
6089;SDS011;3073;42.660;23.316;2023-10-13T05:02:00;20.57;;;11.43;;
6089;SDS011;3073;42.660;23.316;2023-10-13T05:04:41;25.00;;;11.80;;
6089;SDS011;3073;42.660;23.316;2023-10-13T05:07:22;17.53;;;11.50;;
6089;SDS011;3073;42.660;23.316;2023-10-13T05:10:07;19.63;;;11.70;;
6089;SDS011;3073;42.660;23.316;2023-10-13T05:12:51;22.90;;;11.87;;
6089;SDS011;3073;42.660;23.316;2023-10-13T05:15:42;21.80;;;12.20;;
6089;SDS011;3073;42.660;23.316;2023-10-13T05:18:26;20.90;;;9.90;;
6089;SDS011;3073;42.660;23.316;2023-10-13T05:21:11;24.07;;;11.67;;
6089;SDS011;3073;42.660;23.316;2023-10-13T05:23:55;30.83;;;11.90;;
6089;SDS011;3073;42.660;23.316;2023-10-13T05:26:40;18.40;;;9.57;;
6089;SDS011;3073;42.660;23.316;2023-10-13T05:29:24;18.37;;;11.43;;
6089;SDS011;3073;42.660;23.316;2023-10-13T05:32:08;26.83;;;11.33;;
6089;SDS011;3073;42.660;23.316;2023-10-13T05:34:52;31.10;;;11.73;;
6089;SDS011;3073;42.660;23.316;2023-10-13T05:37:36;25.50;;;12.70;;
6089;SDS011;3073;42.660;23.316;2023-10-13T05:40:21;33.77;;;12.57;;
6089;SDS011;3073;42.660;23.316;2023-10-13T05:43:07;31.33;;;12.00;;
6089;SDS011;3073;42.660;23.316;2023-10-13T05:45:51;26.70;;;12.37;;
6089;SDS011;3073;42.660;23.316;2023-10-13T05:48:34;25.77;;;11.70;;
6089;SDS011;3073;42.660;23.316;2023-10-13T05:51:28;18.50;;;11.50;;
6089;SDS011;3073;42.660;23.316;2023-10-13T05:53:58;21.77;;;11.63;;
6089;SDS011;3073;42.660;23.316;2023-10-13T05:56:42;23.23;;;11.50;;
6089;SDS011;3073;42.660;23.316;2023-10-13T05:59:29;28.73;;;12.07;;
6089;SDS011;3073;42.660;23.316;2023-10-13T06:02:15;23.37;;;12.33;;
6089;SDS011;3073;42.660;23.316;2023-10-13T06:05:01;22.77;;;10.90;;
6089;SDS011;3073;42.660;23.316;2023-10-13T06:07:45;21.73;;;12.97;;
6089;SDS011;3073;42.660;23.316;2023-10-13T06:10:29;26.43;;;12.30;;
6089;SDS011;3073;42.660;23.316;2023-10-13T06:13:13;32.77;;;12.33;;
6089;SDS011;3073;42.660;23.316;2023-10-13T06:15:59;22.80;;;12.47;;
6089;SDS011;3073;42.660;23.316;2023-10-13T06:18:42;28.17;;;13.60;;
6089;SDS011;3073;42.660;23.316;2023-10-13T06:21:28;25.40;;;13.00;;
6089;SDS011;3073;42.660;23.316;2023-10-13T06:24:12;21.77;;;12.90;;
6089;SDS011;3073;42.660;23.316;2023-10-13T06:26:57;22.60;;;12.60;;
6089;SDS011;3073;42.660;23.316;2023-10-13T06:29:41;51.37;;;15.47;;
6089;SDS011;3073;42.660;23.316;2023-10-13T06:32:13;37.03;;;14.73;;
6089;SDS011;3073;42.660;23.316;2023-10-13T06:34:41;30.00;;;16.37;;
6089;SDS011;3073;42.660;23.316;2023-10-13T06:37:10;40.17;;;15.10;;
6089;SDS011;3073;42.660;23.316;2023-10-13T06:39:49;39.67;;;15.03;;
6089;SDS011;3073;42.660;23.316;2023-10-13T06:42:16;46.67;;;14.57;;
6089;SDS011;3073;42.660;23.316;2023-10-13T06:44:44;26.60;;;12.27;;
6089;SDS011;3073;42.660;23.316;2023-10-13T06:47:13;43.60;;;15.63;;
6089;SDS011;3073;42.660;23.316;2023-10-13T06:49:40;35.87;;;14.23;;
6089;SDS011;3073;42.660;23.316;2023-10-13T06:52:08;42.03;;;15.73;;
6089;SDS011;3073;42.660;23.316;2023-10-13T06:54:36;36.70;;;15.50;;
6089;SDS011;3073;42.660;23.316;2023-10-13T06:57:04;30.03;;;15.53;;
6089;SDS011;3073;42.660;23.316;2023-10-13T06:59:32;38.40;;;16.17;;
6089;SDS011;3073;42.660;23.316;2023-10-13T07:02:01;38.93;;;13.23;;
6089;SDS011;3073;42.660;23.316;2023-10-13T07:04:35;34.37;;;15.57;;
6089;SDS011;3073;42.660;23.316;2023-10-13T07:07:04;47.27;;;14.43;;
6089;SDS011;3073;42.660;23.316;2023-10-13T07:09:35;28.43;;;14.00;;
6089;SDS011;3073;42.660;23.316;2023-10-13T07:12:15;46.60;;;14.70;;
6089;SDS011;3073;42.660;23.316;2023-10-13T07:14:47;38.07;;;14.93;;
6089;SDS011;3073;42.660;23.316;2023-10-13T07:17:25;40.20;;;15.13;;
6089;SDS011;3073;42.660;23.316;2023-10-13T07:19:53;28.03;;;13.73;;
6089;SDS011;3073;42.660;23.316;2023-10-13T07:22:31;32.33;;;12.83;;
6089;SDS011;3073;42.660;23.316;2023-10-13T07:25:05;27.27;;;13.07;;
6089;SDS011;3073;42.660;23.316;2023-10-13T07:27:32;45.90;;;13.73;;
6089;SDS011;3073;42.660;23.316;2023-10-13T07:30:00;20.63;;;12.20;;
6089;SDS011;3073;42.660;23.316;2023-10-13T07:32:39;21.47;;;12.43;;
6089;SDS011;3073;42.660;23.316;2023-10-13T07:35:11;27.93;;;13.53;;
6089;SDS011;3073;42.660;23.316;2023-10-13T07:37:39;26.43;;;13.40;;
6089;SDS011;3073;42.660;23.316;2023-10-13T07:40:07;33.43;;;12.80;;
6089;SDS011;3073;42.660;23.316;2023-10-13T07:42:47;28.03;;;12.40;;
6089;SDS011;3073;42.660;23.316;2023-10-13T07:45:14;27.23;;;13.50;;
6089;SDS011;3073;42.660;23.316;2023-10-13T07:47:49;31.83;;;13.83;;
6089;SDS011;3073;42.660;23.316;2023-10-13T07:50:18;32.80;;;15.00;;
6089;SDS011;3073;42.660;23.316;2023-10-13T07:52:50;31.53;;;15.50;;
6089;SDS011;3073;42.660;23.316;2023-10-13T07:55:30;40.37;;;14.60;;
6089;SDS011;3073;42.660;23.316;2023-10-13T07:57:58;28.80;;;14.40;;
6089;SDS011;3073;42.660;23.316;2023-10-13T08:00:32;27.83;;;14.70;;
6089;SDS011;3073;42.660;23.316;2023-10-13T08:03:12;37.60;;;14.00;;
6089;SDS011;3073;42.660;23.316;2023-10-13T08:05:58;34.20;;;14.93;;
6089;SDS011;3073;42.660;23.316;2023-10-13T08:08:30;43.57;;;14.40;;
6089;SDS011;3073;42.660;23.316;2023-10-13T08:11:03;32.60;;;14.20;;
6089;SDS011;3073;42.660;23.316;2023-10-13T08:13:36;34.25;;;13.38;;
6089;SDS011;3073;42.660;23.316;2023-10-13T08:16:04;22.53;;;12.90;;
6089;SDS011;3073;42.660;23.316;2023-10-13T08:18:34;48.67;;;14.87;;
6089;SDS011;3073;42.660;23.316;2023-10-13T08:21:08;31.50;;;14.70;;
6089;SDS011;3073;42.660;23.316;2023-10-13T08:23:41;27.60;;;13.98;;
6089;SDS011;3073;42.660;23.316;2023-10-13T08:26:32;22.50;;;14.27;;
6089;SDS011;3073;42.660;23.316;2023-10-13T08:29:19;33.45;;;14.23;;
6089;SDS011;3073;42.660;23.316;2023-10-13T08:32:03;29.15;;;14.30;;
6089;SDS011;3073;42.660;23.316;2023-10-13T08:34:46;35.40;;;14.82;;
6089;SDS011;3073;42.660;23.316;2023-10-13T08:37:36;34.13;;;12.65;;
6089;SDS011;3073;42.660;23.316;2023-10-13T08:40:24;22.23;;;12.65;;
6089;SDS011;3073;42.660;23.316;2023-10-13T08:43:10;26.63;;;14.02;;
6089;SDS011;3073;42.660;23.316;2023-10-13T08:45:38;29.45;;;14.85;;
6089;SDS011;3073;42.660;23.316;2023-10-13T08:48:25;33.50;;;15.20;;
6089;SDS011;3073;42.660;23.316;2023-10-13T08:50:57;29.40;;;15.57;;
6089;SDS011;3073;42.660;23.316;2023-10-13T08:53:36;31.08;;;14.23;;
6089;SDS011;3073;42.660;23.316;2023-10-13T08:56:17;24.45;;;14.35;;
6089;SDS011;3073;42.660;23.316;2023-10-13T08:58:58;29.60;;;14.82;;
6089;SDS011;3073;42.660;23.316;2023-10-13T09:01:31;39.67;;;16.70;;
6089;SDS011;3073;42.660;23.316;2023-10-13T09:04:11;28.20;;;15.85;;
6089;SDS011;3073;42.660;23.316;2023-10-13T09:06:46;28.92;;;15.90;;
6089;SDS011;3073;42.660;23.316;2023-10-13T09:09:27;38.78;;;15.07;;
6089;SDS011;3073;42.660;23.316;2023-10-13T09:12:00;35.88;;;17.20;;
6089;SDS011;3073;42.660;23.316;2023-10-13T09:14:35;33.80;;;15.52;;
6089;SDS011;3073;42.660;23.316;2023-10-13T09:17:04;31.33;;;17.00;;
6089;SDS011;3073;42.660;23.316;2023-10-13T09:19:44;39.25;;;17.70;;
6089;SDS011;3073;42.660;23.316;2023-10-13T09:22:25;43.30;;;14.43;;
6089;SDS011;3073;42.660;23.316;2023-10-13T09:25:01;36.13;;;14.07;;
6089;SDS011;3073;42.660;23.316;2023-10-13T09:27:30;30.60;;;13.60;;
6089;SDS011;3073;42.660;23.316;2023-10-13T09:29:59;25.92;;;12.30;;
6089;SDS011;3073;42.660;23.316;2023-10-13T09:32:31;32.53;;;13.80;;
6089;SDS011;3073;42.660;23.316;2023-10-13T09:35:07;28.58;;;12.05;;
6089;SDS011;3073;42.660;23.316;2023-10-13T09:37:38;27.27;;;13.23;;
6089;SDS011;3073;42.660;23.316;2023-10-13T09:40:07;25.58;;;10.98;;
6089;SDS011;3073;42.660;23.316;2023-10-13T09:43:09;23.13;;;11.55;;
6089;SDS011;3073;42.660;23.316;2023-10-13T09:45:40;23.63;;;11.40;;
6089;SDS011;3073;42.660;23.316;2023-10-13T09:48:09;33.03;;;11.75;;
6089;SDS011;3073;42.660;23.316;2023-10-13T09:50:42;23.67;;;10.65;;
6089;SDS011;3073;42.660;23.316;2023-10-13T09:53:13;20.40;;;10.55;;
6089;SDS011;3073;42.660;23.316;2023-10-13T09:55:44;19.95;;;10.35;;
6089;SDS011;3073;42.660;23.316;2023-10-13T09:58:14;24.25;;;9.98;;
6089;SDS011;3073;42.660;23.316;2023-10-13T10:00:45;17.88;;;9.30;;
6089;SDS011;3073;42.660;23.316;2023-10-13T10:03:15;17.80;;;9.38;;
6089;SDS011;3073;42.660;23.316;2023-10-13T10:05:56;24.63;;;7.65;;
6089;SDS011;3073;42.660;23.316;2023-10-13T10:08:30;19.08;;;7.07;;
6089;SDS011;3073;42.660;23.316;2023-10-13T10:14:15;18.92;;;6.55;;
6089;SDS011;3073;42.660;23.316;2023-10-13T10:19:44;26.95;;;8.10;;
6089;SDS011;3073;42.660;23.316;2023-10-13T10:22:12;17.77;;;7.93;;
6089;SDS011;3073;42.660;23.316;2023-10-13T10:24:42;15.80;;;6.70;;
6089;SDS011;3073;42.660;23.316;2023-10-13T10:27:11;19.45;;;8.20;;
6089;SDS011;3073;42.660;23.316;2023-10-13T10:29:41;23.73;;;6.25;;
6089;SDS011;3073;42.660;23.316;2023-10-13T10:32:19;12.63;;;5.97;;
6089;SDS011;3073;42.660;23.316;2023-10-13T10:34:46;15.10;;;6.00;;
6089;SDS011;3073;42.660;23.316;2023-10-13T10:37:13;22.92;;;6.88;;
6089;SDS011;3073;42.660;23.316;2023-10-13T10:39:41;17.17;;;6.40;;
6089;SDS011;3073;42.660;23.316;2023-10-13T10:42:12;13.70;;;7.22;;
6089;SDS011;3073;42.660;23.316;2023-10-13T10:44:50;13.38;;;6.70;;
6089;SDS011;3073;42.660;23.316;2023-10-13T10:47:23;13.93;;;5.57;;
6089;SDS011;3073;42.660;23.316;2023-10-13T10:49:58;14.65;;;5.90;;
6089;SDS011;3073;42.660;23.316;2023-10-13T10:52:26;16.67;;;5.70;;
6089;SDS011;3073;42.660;23.316;2023-10-13T10:55:04;15.70;;;4.53;;
6089;SDS011;3073;42.660;23.316;2023-10-13T10:57:40;65.75;;;7.35;;
6089;SDS011;3073;42.660;23.316;2023-10-13T11:00:19;9.23;;;5.22;;
6089;SDS011;3073;42.660;23.316;2023-10-13T11:02:53;15.77;;;5.40;;
6089;SDS011;3073;42.660;23.316;2023-10-13T11:05:21;14.20;;;4.90;;
6089;SDS011;3073;42.660;23.316;2023-10-13T11:07:49;18.00;;;6.32;;
6089;SDS011;3073;42.660;23.316;2023-10-13T11:10:16;15.77;;;6.13;;
6089;SDS011;3073;42.660;23.316;2023-10-13T11:12:55;16.35;;;5.95;;
6089;SDS011;3073;42.660;23.316;2023-10-13T11:15:42;18.48;;;5.63;;
6089;SDS011;3073;42.660;23.316;2023-10-13T11:18:10;15.73;;;5.22;;
6089;SDS011;3073;42.660;23.316;2023-10-13T11:20:41;10.32;;;4.57;;
6089;SDS011;3073;42.660;23.316;2023-10-13T11:23:10;19.92;;;4.93;;
6089;SDS011;3073;42.660;23.316;2023-10-13T11:25:37;13.57;;;5.25;;
6089;SDS011;3073;42.660;23.316;2023-10-13T11:28:11;17.45;;;4.32;;
6089;SDS011;3073;42.660;23.316;2023-10-13T11:30:46;19.67;;;5.60;;
6089;SDS011;3073;42.660;23.316;2023-10-13T11:33:15;14.10;;;5.10;;
6089;SDS011;3073;42.660;23.316;2023-10-13T11:35:46;8.38;;;3.92;;
6089;SDS011;3073;42.660;23.316;2023-10-13T11:38:21;12.98;;;4.38;;
6089;SDS011;3073;42.660;23.316;2023-10-13T11:40:53;9.65;;;3.78;;
6089;SDS011;3073;42.660;23.316;2023-10-13T11:43:37;8.23;;;3.47;;
6089;SDS011;3073;42.660;23.316;2023-10-13T11:46:31;11.77;;;3.10;;
6089;SDS011;3073;42.660;23.316;2023-10-13T11:49:14;11.98;;;3.47;;
6089;SDS011;3073;42.660;23.316;2023-10-13T11:51:45;6.97;;;2.92;;
6089;SDS011;3073;42.660;23.316;2023-10-13T11:54:12;10.55;;;6.15;;
6089;SDS011;3073;42.660;23.316;2023-10-13T11:56:40;9.23;;;3.40;;
6089;SDS011;3073;42.660;23.316;2023-10-13T11:59:07;9.98;;;3.38;;
6089;SDS011;3073;42.660;23.316;2023-10-13T12:01:43;11.95;;;3.95;;
6089;SDS011;3073;42.660;23.316;2023-10-13T12:04:27;16.13;;;4.40;;
6089;SDS011;3073;42.660;23.316;2023-10-13T12:06:58;10.32;;;3.40;;
6089;SDS011;3073;42.660;23.316;2023-10-13T12:09:40;7.93;;;3.30;;
6089;SDS011;3073;42.660;23.316;2023-10-13T12:12:17;7.38;;;2.83;;
6089;SDS011;3073;42.660;23.316;2023-10-13T12:14:44;7.13;;;2.25;;
6089;SDS011;3073;42.660;23.316;2023-10-13T12:17:22;4.82;;;2.47;;
6089;SDS011;3073;42.660;23.316;2023-10-13T12:19:53;5.43;;;2.80;;
6089;SDS011;3073;42.660;23.316;2023-10-13T12:22:22;10.88;;;3.20;;
6089;SDS011;3073;42.660;23.316;2023-10-13T12:24:53;6.25;;;2.67;;
6089;SDS011;3073;42.660;23.316;2023-10-13T12:27:21;7.68;;;2.90;;
6089;SDS011;3073;42.660;23.316;2023-10-13T12:29:52;7.07;;;3.13;;
6089;SDS011;3073;42.660;23.316;2023-10-13T12:32:23;14.45;;;2.95;;
6089;SDS011;3073;42.660;23.316;2023-10-13T12:34:50;19.13;;;2.97;;
6089;SDS011;3073;42.660;23.316;2023-10-13T12:37:26;5.32;;;2.28;;
6089;SDS011;3073;42.660;23.316;2023-10-13T12:40:15;14.75;;;3.00;;
6089;SDS011;3073;42.660;23.316;2023-10-13T12:43:00;9.32;;;3.40;;
6089;SDS011;3073;42.660;23.316;2023-10-13T12:45:45;5.68;;;2.95;;
6089;SDS011;3073;42.660;23.316;2023-10-13T12:48:32;9.98;;;3.38;;
6089;SDS011;3073;42.660;23.316;2023-10-13T12:51:17;6.55;;;2.65;;
6089;SDS011;3073;42.660;23.316;2023-10-13T12:54:05;10.18;;;2.85;;
6089;SDS011;3073;42.660;23.316;2023-10-13T12:56:39;11.75;;;3.65;;
6089;SDS011;3073;42.660;23.316;2023-10-13T12:59:07;8.20;;;3.30;;
6089;SDS011;3073;42.660;23.316;2023-10-13T13:01:34;7.22;;;3.05;;
6089;SDS011;3073;42.660;23.316;2023-10-13T13:04:08;9.40;;;3.05;;
6089;SDS011;3073;42.660;23.316;2023-10-13T13:06:43;7.45;;;3.40;;
6089;SDS011;3073;42.660;23.316;2023-10-13T13:09:10;9.73;;;3.30;;
6089;SDS011;3073;42.660;23.316;2023-10-13T13:11:38;11.88;;;3.03;;
6089;SDS011;3073;42.660;23.316;2023-10-13T13:14:06;7.22;;;2.83;;
6089;SDS011;3073;42.660;23.316;2023-10-13T13:16:34;6.68;;;3.35;;
6089;SDS011;3073;42.660;23.316;2023-10-13T13:19:03;9.38;;;3.42;;
6089;SDS011;3073;42.660;23.316;2023-10-13T13:21:36;7.93;;;3.47;;
6089;SDS011;3073;42.660;23.316;2023-10-13T13:24:04;7.93;;;3.15;;
6089;SDS011;3073;42.660;23.316;2023-10-13T13:26:36;8.13;;;2.92;;
6089;SDS011;3073;42.660;23.316;2023-10-13T13:29:05;9.23;;;3.95;;
6089;SDS011;3073;42.660;23.316;2023-10-13T13:31:34;16.20;;;3.40;;
6089;SDS011;3073;42.660;23.316;2023-10-13T13:34:06;7.60;;;2.92;;
6089;SDS011;3073;42.660;23.316;2023-10-13T13:36:34;10.45;;;2.83;;
6089;SDS011;3073;42.660;23.316;2023-10-13T13:39:02;9.35;;;3.33;;
6089;SDS011;3073;42.660;23.316;2023-10-13T13:41:31;7.93;;;3.20;;
6089;SDS011;3073;42.660;23.316;2023-10-13T13:43:58;12.15;;;2.55;;
6089;SDS011;3073;42.660;23.316;2023-10-13T13:46:38;9.60;;;3.00;;
6089;SDS011;3073;42.660;23.316;2023-10-13T13:49:07;8.82;;;2.83;;
6089;SDS011;3073;42.660;23.316;2023-10-13T13:51:43;8.63;;;3.50;;
6089;SDS011;3073;42.660;23.316;2023-10-13T13:54:18;9.50;;;3.05;;
6089;SDS011;3073;42.660;23.316;2023-10-13T13:56:46;6.75;;;3.28;;
6089;SDS011;3073;42.660;23.316;2023-10-13T13:59:13;7.45;;;2.85;;
6089;SDS011;3073;42.660;23.316;2023-10-13T14:01:45;5.40;;;2.97;;
6089;SDS011;3073;42.660;23.316;2023-10-13T14:04:12;9.88;;;3.35;;
6089;SDS011;3073;42.660;23.316;2023-10-13T14:06:43;8.95;;;3.40;;
6089;SDS011;3073;42.660;23.316;2023-10-13T14:09:11;11.85;;;3.47;;
6089;SDS011;3073;42.660;23.316;2023-10-13T14:11:49;8.77;;;4.05;;
6089;SDS011;3073;42.660;23.316;2023-10-13T14:14:33;11.88;;;4.35;;
6089;SDS011;3073;42.660;23.316;2023-10-13T14:17:00;20.38;;;4.43;;
6089;SDS011;3073;42.660;23.316;2023-10-13T14:19:32;10.60;;;3.50;;
6089;SDS011;3073;42.660;23.316;2023-10-13T14:22:00;13.88;;;3.67;;
6089;SDS011;3073;42.660;23.316;2023-10-13T14:24:32;7.50;;;3.75;;
6089;SDS011;3073;42.660;23.316;2023-10-13T14:27:09;10.23;;;3.92;;
6089;SDS011;3073;42.660;23.316;2023-10-13T14:29:41;9.35;;;3.95;;
6089;SDS011;3073;42.660;23.316;2023-10-13T14:32:08;11.23;;;3.92;;
6089;SDS011;3073;42.660;23.316;2023-10-13T14:34:38;11.40;;;4.38;;
6089;SDS011;3073;42.660;23.316;2023-10-13T14:37:06;11.00;;;4.57;;
6089;SDS011;3073;42.660;23.316;2023-10-13T14:39:33;8.60;;;4.00;;
6089;SDS011;3073;42.660;23.316;2023-10-13T14:42:02;8.60;;;4.38;;
6089;SDS011;3073;42.660;23.316;2023-10-13T14:44:32;7.63;;;4.10;;
6089;SDS011;3073;42.660;23.316;2023-10-13T14:47:00;19.05;;;5.72;;
6089;SDS011;3073;42.660;23.316;2023-10-13T14:49:27;11.93;;;4.47;;
6089;SDS011;3073;42.660;23.316;2023-10-13T14:51:54;15.82;;;5.15;;
6089;SDS011;3073;42.660;23.316;2023-10-13T14:54:21;17.10;;;5.25;;
6089;SDS011;3073;42.660;23.316;2023-10-13T14:56:58;19.10;;;6.97;;
6089;SDS011;3073;42.660;23.316;2023-10-13T14:59:26;25.75;;;6.65;;
6089;SDS011;3073;42.660;23.316;2023-10-13T15:02:00;21.35;;;6.82;;
6089;SDS011;3073;42.660;23.316;2023-10-13T15:04:28;17.48;;;5.50;;
6089;SDS011;3073;42.660;23.316;2023-10-13T15:06:58;22.90;;;4.90;;
6089;SDS011;3073;42.660;23.316;2023-10-13T15:09:27;24.20;;;5.43;;
6089;SDS011;3073;42.660;23.316;2023-10-13T15:11:54;25.92;;;5.40;;
6089;SDS011;3073;42.660;23.316;2023-10-13T15:14:21;31.80;;;5.68;;
6089;SDS011;3073;42.660;23.316;2023-10-13T15:16:50;17.60;;;5.13;;
6089;SDS011;3073;42.660;23.316;2023-10-13T15:19:19;23.67;;;6.88;;
6089;SDS011;3073;42.660;23.316;2023-10-13T15:21:46;17.20;;;6.05;;
6089;SDS011;3073;42.660;23.316;2023-10-13T15:24:15;24.30;;;5.50;;
6089;SDS011;3073;42.660;23.316;2023-10-13T15:26:43;17.40;;;6.35;;
6089;SDS011;3073;42.660;23.316;2023-10-13T15:29:13;23.20;;;5.93;;
6089;SDS011;3073;42.660;23.316;2023-10-13T15:31:42;29.23;;;7.20;;